MMLM/LMM METAR and TAF weather

Enter ICAO airport designator
Station Type Date Time Source
MMLM METAR 2021/04/13 02:40 UTC NOAA

MMLM 130240Z 00000KT 10SM SKC 21/17 A2980 RMK SLP092


Station Type Date Time Source
MMLM Decoded METAR 2021/04/13 02:40 UTC NOAA

Los Mochis Airport, Mexico (MMLM) 25-41N 109-05W
Apr 12, 2021 - 10:40 PM EDT / 2021.04.13 0240 UTC
Wind: Calm:0
Visibility: 10 mile(s):0
Sky conditions: clear
Temperature: 69 F (21 C)
Dew Point: 62 F (17 C)
Relative Humidity: 77%
Pressure (altimeter): 29.8 in. Hg (1009 hPa)
ob: MMLM 130240Z 00000KT 10SM SKC 21/17 A2980 RMK SLP092
cycle: 2

Station Type Date Time Source
MMLM TAF 2021/04/13 06:49 UTC NOAA

TAF MMLM 130442Z 1306/1406 00000KT 6SM HZ SKC
FM131000 00000KT 3SM BR SCT010
TEMPO 1312/1315 1/2SM FG OVC005
FM131600 00000KT 5SM HZ SKC
FM131800 20012KT P6SM SKC
FM140300 16005KT P6SM SKC

Example: see airport list